sensor_id;sensor_type;location;lat;lon;timestamp;pressure;altitude;pressure_sealevel;temperature;humidity
39435;BME280;66825;51.880;-0.518;2023-10-31T00:01:11;98841.88;;;18.50;48.04
39435;BME280;66825;51.880;-0.518;2023-10-31T00:03:36;98838.34;;;18.50;48.03
39435;BME280;66825;51.880;-0.518;2023-10-31T00:06:02;98839.84;;;18.47;48.26
39435;BME280;66825;51.880;-0.518;2023-10-31T00:08:27;98845.75;;;18.49;48.06
39435;BME280;66825;51.880;-0.518;2023-10-31T00:10:53;98842.56;;;18.47;48.04
39435;BME280;66825;51.880;-0.518;2023-10-31T00:13:18;98810.00;;;18.26;48.20
39435;BME280;66825;51.880;-0.518;2023-10-31T00:15:44;98839.72;;;18.44;47.99
39435;BME280;66825;51.880;-0.518;2023-10-31T00:18:09;98848.38;;;18.46;48.19
39435;BME280;66825;51.880;-0.518;2023-10-31T00:20:35;98849.50;;;18.45;48.21
39435;BME280;66825;51.880;-0.518;2023-10-31T00:23:00;98818.53;;;18.24;48.19
39435;BME280;66825;51.880;-0.518;2023-10-31T00:25:25;98851.00;;;18.42;48.05
39435;BME280;66825;51.880;-0.518;2023-10-31T00:27:51;98859.94;;;18.42;48.17
39435;BME280;66825;51.880;-0.518;2023-10-31T00:30:16;98860.72;;;18.43;47.92
39435;BME280;66825;51.880;-0.518;2023-10-31T00:32:42;98861.09;;;18.41;48.09
39435;BME280;66825;51.880;-0.518;2023-10-31T00:35:07;98863.81;;;18.41;48.09
39435;BME280;66825;51.880;-0.518;2023-10-31T00:37:33;98831.25;;;18.20;47.89
39435;BME280;66825;51.880;-0.518;2023-10-31T00:39:58;98857.00;;;18.35;48.08
39435;BME280;66825;51.880;-0.518;2023-10-31T00:42:24;98855.41;;;18.34;48.13
39435;BME280;66825;51.880;-0.518;2023-10-31T00:44:49;98864.16;;;18.40;47.89
39435;BME280;66825;51.880;-0.518;2023-10-31T00:47:15;98857.13;;;18.39;48.00
39435;BME280;66825;51.880;-0.518;2023-10-31T00:49:41;98862.09;;;18.37;47.91
39435;BME280;66825;51.880;-0.518;2023-10-31T00:52:06;98861.34;;;18.36;48.14
39435;BME280;66825;51.880;-0.518;2023-10-31T00:54:32;98861.34;;;18.36;48.13
39435;BME280;66825;51.880;-0.518;2023-10-31T00:56:57;98859.75;;;18.35;48.02
39435;BME280;66825;51.880;-0.518;2023-10-31T00:59:22;98833.53;;;18.18;48.11
39435;BME280;66825;51.880;-0.518;2023-10-31T01:01:48;98858.97;;;18.35;47.74
39435;BME280;66825;51.880;-0.518;2023-10-31T01:04:13;98853.81;;;18.33;48.04
39435;BME280;66825;51.880;-0.518;2023-10-31T01:06:42;98853.03;;;18.33;47.94
39435;BME280;66825;51.880;-0.518;2023-10-31T01:09:09;98837.16;;;18.22;48.07
39435;BME280;66825;51.880;-0.518;2023-10-31T01:11:35;98854.19;;;18.32;48.04
39435;BME280;66825;51.880;-0.518;2023-10-31T01:14:00;98826.38;;;18.14;47.96
39435;BME280;66825;51.880;-0.518;2023-10-31T01:16:25;98862.72;;;18.30;48.03
39435;BME280;66825;51.880;-0.518;2023-10-31T01:18:51;98856.44;;;18.30;48.03
39435;BME280;66825;51.880;-0.518;2023-10-31T01:21:16;98868.47;;;18.29;47.94
39435;BME280;66825;51.880;-0.518;2023-10-31T01:23:42;98861.47;;;18.28;47.91
39435;BME280;66825;51.880;-0.518;2023-10-31T01:26:07;98859.88;;;18.27;47.90
39435;BME280;66825;51.880;-0.518;2023-10-31T01:28:33;98866.91;;;18.28;47.88
39435;BME280;66825;51.880;-0.518;2023-10-31T01:30:58;98859.06;;;18.26;47.88
39435;BME280;66825;51.880;-0.518;2023-10-31T01:33:24;98867.25;;;18.26;47.93
39435;BME280;66825;51.880;-0.518;2023-10-31T01:35:49;98862.91;;;18.25;48.21
39435;BME280;66825;51.880;-0.518;2023-10-31T01:38:14;98854.75;;;18.25;48.00
39435;BME280;66825;51.880;-0.518;2023-10-31T01:40:40;98855.91;;;18.24;47.95
39435;BME280;66825;51.880;-0.518;2023-10-31T01:43:05;98842.28;;;18.12;47.88
39435;BME280;66825;51.880;-0.518;2023-10-31T01:45:31;98868.72;;;18.23;47.98
39435;BME280;66825;51.880;-0.518;2023-10-31T01:47:56;98792.44;;;17.74;47.61
39435;BME280;66825;51.880;-0.518;2023-10-31T01:50:22;98859.53;;;18.16;48.01
39435;BME280;66825;51.880;-0.518;2023-10-31T01:52:48;98846.13;;;18.10;47.83
39435;BME280;66825;51.880;-0.518;2023-10-31T01:55:14;98867.47;;;18.21;47.88
39435;BME280;66825;51.880;-0.518;2023-10-31T01:57:40;98865.09;;;18.19;47.85
39435;BME280;66825;51.880;-0.518;2023-10-31T02:00:06;98861.13;;;18.17;48.00
39435;BME280;66825;51.880;-0.518;2023-10-31T02:02:33;98863.50;;;18.18;47.92
39435;BME280;66825;51.880;-0.518;2023-10-31T02:05:00;98866.25;;;18.18;47.76
39435;BME280;66825;51.880;-0.518;2023-10-31T02:07:26;98863.50;;;18.18;47.80
39435;BME280;66825;51.880;-0.518;2023-10-31T02:09:52;98859.19;;;18.17;47.78
39435;BME280;66825;51.880;-0.518;2023-10-31T02:12:36;98856.47;;;18.17;47.87
39435;BME280;66825;51.880;-0.518;2023-10-31T02:15:03;98861.47;;;18.15;47.91
39435;BME280;66825;51.880;-0.518;2023-10-31T02:17:29;98854.88;;;18.16;47.91
39435;BME280;66825;51.880;-0.518;2023-10-31T02:19:54;98855.22;;;18.15;47.78
39435;BME280;66825;51.880;-0.518;2023-10-31T02:22:21;98859.09;;;18.14;47.71
39435;BME280;66825;51.880;-0.518;2023-10-31T02:24:46;98862.06;;;18.08;47.79
39435;BME280;66825;51.880;-0.518;2023-10-31T02:27:12;98860.69;;;18.15;47.75
39435;BME280;66825;51.880;-0.518;2023-10-31T02:29:39;98858.31;;;18.13;47.75
39435;BME280;66825;51.880;-0.518;2023-10-31T02:32:04;98871.94;;;18.13;47.71
39435;BME280;66825;51.880;-0.518;2023-10-31T02:34:30;98836.25;;;17.93;47.99
39435;BME280;66825;51.880;-0.518;2023-10-31T02:36:55;98852.38;;;18.11;47.73
39435;BME280;66825;51.880;-0.518;2023-10-31T02:39:21;98851.94;;;18.09;47.79
39435;BME280;66825;51.880;-0.518;2023-10-31T02:41:46;98868.75;;;18.11;47.86
39435;BME280;66825;51.880;-0.518;2023-10-31T02:44:14;98853.53;;;18.10;47.87
39435;BME280;66825;51.880;-0.518;2023-10-31T02:46:39;98861.69;;;18.10;47.85
39435;BME280;66825;51.880;-0.518;2023-10-31T02:49:05;98856.25;;;18.10;47.70
39435;BME280;66825;51.880;-0.518;2023-10-31T02:51:30;98854.66;;;18.09;47.78
39435;BME280;66825;51.880;-0.518;2023-10-31T02:53:56;98853.06;;;18.08;47.73
39435;BME280;66825;51.880;-0.518;2023-10-31T02:56:21;98853.06;;;18.08;47.90
39435;BME280;66825;51.880;-0.518;2023-10-31T02:58:47;98860.47;;;18.07;47.79
39435;BME280;66825;51.880;-0.518;2023-10-31T03:01:12;98864.31;;;18.06;47.52
39435;BME280;66825;51.880;-0.518;2023-10-31T03:03:38;98861.59;;;18.06;47.74
39435;BME280;66825;51.880;-0.518;2023-10-31T03:06:04;98865.44;;;18.05;47.60
39435;BME280;66825;51.880;-0.518;2023-10-31T03:08:30;98859.09;;;18.01;47.62
39435;BME280;66825;51.880;-0.518;2023-10-31T03:10:56;98864.19;;;18.03;47.64
39435;BME280;66825;51.880;-0.518;2023-10-31T03:13:21;98827.16;;;17.77;47.66
39435;BME280;66825;51.880;-0.518;2023-10-31T03:15:47;98868.53;;;18.04;47.72
39435;BME280;66825;51.880;-0.518;2023-10-31T03:18:12;98868.53;;;18.04;47.65
39435;BME280;66825;51.880;-0.518;2023-10-31T03:20:39;98855.81;;;17.96;47.59
39435;BME280;66825;51.880;-0.518;2023-10-31T03:23:05;98842.72;;;17.89;47.78
39435;BME280;66825;51.880;-0.518;2023-10-31T03:25:30;98863.41;;;18.02;47.54
39435;BME280;66825;51.880;-0.518;2023-10-31T03:27:56;98846.00;;;17.94;47.63
39435;BME280;66825;51.880;-0.518;2023-10-31T03:30:21;98781.53;;;17.49;47.69
39435;BME280;66825;51.880;-0.518;2023-10-31T03:32:47;98864.88;;;18.00;47.74
39435;BME280;66825;51.880;-0.518;2023-10-31T03:35:12;98840.34;;;17.87;47.78
39435;BME280;66825;51.880;-0.518;2023-10-31T03:37:38;98860.59;;;17.99;47.61
39435;BME280;66825;51.880;-0.518;2023-10-31T03:40:08;98867.94;;;17.98;47.62
39435;BME280;66825;51.880;-0.518;2023-10-31T03:42:34;98865.22;;;17.98;47.55
39435;BME280;66825;51.880;-0.518;2023-10-31T03:44:59;98865.22;;;17.98;47.66
39435;BME280;66825;51.880;-0.518;2023-10-31T03:47:25;98858.38;;;17.92;47.67
39435;BME280;66825;51.880;-0.518;2023-10-31T03:49:50;98867.16;;;17.98;47.74
39435;BME280;66825;51.880;-0.518;2023-10-31T03:52:16;98863.97;;;17.96;47.56
39435;BME280;66825;51.880;-0.518;2023-10-31T03:54:41;98863.97;;;17.96;47.45
39435;BME280;66825;51.880;-0.518;2023-10-31T03:57:07;98865.06;;;17.94;47.60
39435;BME280;66825;51.880;-0.518;2023-10-31T03:59:32;98861.88;;;17.92;47.73
39435;BME280;66825;51.880;-0.518;2023-10-31T04:01:58;98864.28;;;17.94;47.64
39435;BME280;66825;51.880;-0.518;2023-10-31T04:04:23;98864.28;;;17.94;47.52
39435;BME280;66825;51.880;-0.518;2023-10-31T04:06:48;98860.34;;;17.91;47.52
39435;BME280;66825;51.880;-0.518;2023-10-31T04:09:14;98868.16;;;17.93;47.71
39435;BME280;66825;51.880;-0.518;2023-10-31T04:11:40;98869.28;;;17.92;47.67
39435;BME280;66825;51.880;-0.518;2023-10-31T04:14:06;98867.34;;;17.92;47.62
39435;BME280;66825;51.880;-0.518;2023-10-31T04:16:32;98867.69;;;17.91;47.53
39435;BME280;66825;51.880;-0.518;2023-10-31T04:18:57;98869.53;;;17.87;47.38
39435;BME280;66825;51.880;-0.518;2023-10-31T04:21:23;98869.63;;;17.90;47.63
39435;BME280;66825;51.880;-0.518;2023-10-31T04:23:48;98856.09;;;17.82;47.59
39435;BME280;66825;51.880;-0.518;2023-10-31T04:26:14;98856.09;;;17.82;47.45
39435;BME280;66825;51.880;-0.518;2023-10-31T04:28:41;98878.13;;;17.89;47.64
39435;BME280;66825;51.880;-0.518;2023-10-31T04:31:06;98879.72;;;17.90;47.67
39435;BME280;66825;51.880;-0.518;2023-10-31T04:33:32;98886.28;;;17.89;47.55
39435;BME280;66825;51.880;-0.518;2023-10-31T04:35:57;98882.00;;;17.88;47.51
39435;BME280;66825;51.880;-0.518;2023-10-31T04:38:22;98883.13;;;17.87;47.66
39435;BME280;66825;51.880;-0.518;2023-10-31T04:40:48;98883.13;;;17.87;47.61
39435;BME280;66825;51.880;-0.518;2023-10-31T04:43:13;98892.09;;;17.87;47.66
39435;BME280;66825;51.880;-0.518;2023-10-31T04:45:39;98873.34;;;17.73;47.51
39435;BME280;66825;51.880;-0.518;2023-10-31T04:48:04;98889.72;;;17.86;47.47
39435;BME280;66825;51.880;-0.518;2023-10-31T04:50:30;98896.28;;;17.85;47.49
39435;BME280;66825;51.880;-0.518;2023-10-31T04:52:55;98888.91;;;17.85;47.61
39435;BME280;66825;51.880;-0.518;2023-10-31T04:55:21;98880.84;;;17.76;47.48
39435;BME280;66825;51.880;-0.518;2023-10-31T04:57:46;98896.28;;;17.85;47.65
39435;BME280;66825;51.880;-0.518;2023-10-31T05:00:12;98893.09;;;17.83;47.47
39435;BME280;66825;51.880;-0.518;2023-10-31T05:02:37;98889.25;;;17.84;47.23
39435;BME280;66825;51.880;-0.518;2023-10-31T05:05:03;98891.19;;;17.83;47.35
39435;BME280;66825;51.880;-0.518;2023-10-31T05:07:29;98895.84;;;17.83;47.35
39435;BME280;66825;51.880;-0.518;2023-10-31T05:09:54;98907.06;;;17.81;47.49
39435;BME280;66825;51.880;-0.518;2023-10-31T05:12:20;98904.34;;;17.81;47.57
39435;BME280;66825;51.880;-0.518;2023-10-31T05:14:45;98912.53;;;17.81;47.61
39435;BME280;66825;51.880;-0.518;2023-10-31T05:17:10;98832.25;;;17.29;47.50
39435;BME280;66825;51.880;-0.518;2023-10-31T05:19:36;98903.09;;;17.78;47.58
39435;BME280;66825;51.880;-0.518;2023-10-31T05:22:01;98921.81;;;17.80;47.49
39435;BME280;66825;51.880;-0.518;2023-10-31T05:24:27;98918.31;;;17.80;47.44
39435;BME280;66825;51.880;-0.518;2023-10-31T05:26:53;98912.06;;;17.79;47.44
39435;BME280;66825;51.880;-0.518;2023-10-31T05:29:18;98915.59;;;17.80;47.50
39435;BME280;66825;51.880;-0.518;2023-10-31T05:31:44;98918.63;;;17.78;47.40
39435;BME280;66825;51.880;-0.518;2023-10-31T05:34:09;98913.19;;;17.78;47.22
39435;BME280;66825;51.880;-0.518;2023-10-31T05:36:35;98914.00;;;17.78;47.51
39435;BME280;66825;51.880;-0.518;2023-10-31T05:39:00;98918.63;;;17.78;47.54
39435;BME280;66825;51.880;-0.518;2023-10-31T05:41:26;98924.09;;;17.78;47.61
39435;BME280;66825;51.880;-0.518;2023-10-31T05:43:51;98927.94;;;17.77;47.42
39435;BME280;66825;51.880;-0.518;2023-10-31T05:46:17;98916.25;;;17.76;47.39
39435;BME280;66825;51.880;-0.518;2023-10-31T05:48:46;98915.47;;;17.76;47.21
39435;BME280;66825;51.880;-0.518;2023-10-31T05:51:19;98897.06;;;17.60;47.37
39435;BME280;66825;51.880;-0.518;2023-10-31T05:53:46;98914.66;;;17.75;47.27
39435;BME280;66825;51.880;-0.518;2023-10-31T05:56:12;98915.00;;;17.74;47.54
39435;BME280;66825;51.880;-0.518;2023-10-31T05:58:39;98916.94;;;17.73;47.18
39435;BME280;66825;51.880;-0.518;2023-10-31T06:01:05;98903.31;;;17.73;47.35
39435;BME280;66825;51.880;-0.518;2023-10-31T06:03:31;98901.28;;;17.70;47.28
39435;BME280;66825;51.880;-0.518;2023-10-31T06:05:56;98914.19;;;17.73;47.50
39435;BME280;66825;51.880;-0.518;2023-10-31T06:08:22;98906.38;;;17.72;47.45
39435;BME280;66825;51.880;-0.518;2023-10-31T06:10:50;98911.81;;;17.72;47.42
39435;BME280;66825;51.880;-0.518;2023-10-31T06:13:16;98890.25;;;17.54;47.33
39435;BME280;66825;51.880;-0.518;2023-10-31T06:15:42;98908.31;;;17.71;47.43
39435;BME280;66825;51.880;-0.518;2023-10-31T06:18:07;98912.16;;;17.70;47.46
39435;BME280;66825;51.880;-0.518;2023-10-31T06:20:32;98910.91;;;17.68;47.49
39435;BME280;66825;51.880;-0.518;2023-10-31T06:23:00;98908.63;;;17.70;47.40
39435;BME280;66825;51.880;-0.518;2023-10-31T06:25:28;98905.47;;;17.68;47.28
39435;BME280;66825;51.880;-0.518;2023-10-31T06:27:54;98907.84;;;17.69;47.43
39435;BME280;66825;51.880;-0.518;2023-10-31T06:30:19;98907.84;;;17.69;47.36
39435;BME280;66825;51.880;-0.518;2023-10-31T06:32:45;98907.06;;;17.69;47.38
39435;BME280;66825;51.880;-0.518;2023-10-31T06:35:10;98909.78;;;17.69;47.29
39435;BME280;66825;51.880;-0.518;2023-10-31T06:37:36;98913.66;;;17.68;47.33
39435;BME280;66825;51.880;-0.518;2023-10-31T06:40:02;98918.28;;;17.67;47.26
39435;BME280;66825;51.880;-0.518;2023-10-31T06:42:28;98922.94;;;17.67;47.45
39435;BME280;66825;51.880;-0.518;2023-10-31T06:44:53;98913.28;;;17.57;47.23
39435;BME280;66825;51.880;-0.518;2023-10-31T06:47:18;98914.41;;;17.56;47.24
39435;BME280;66825;51.880;-0.518;2023-10-31T06:49:44;98839.19;;;17.05;47.48
39435;BME280;66825;51.880;-0.518;2023-10-31T06:52:09;98940.41;;;17.66;47.47
39435;BME280;66825;51.880;-0.518;2023-10-31T06:54:35;98846.44;;;17.01;47.47
39435;BME280;66825;51.880;-0.518;2023-10-31T06:57:00;98942.34;;;17.65;47.26
39435;BME280;66825;51.880;-0.518;2023-10-31T06:59:27;98940.50;;;17.57;47.42
39435;BME280;66825;51.880;-0.518;2023-10-31T07:01:54;98949.25;;;17.62;47.43
39435;BME280;66825;51.880;-0.518;2023-10-31T07:04:20;98958.22;;;17.63;47.21
39435;BME280;66825;51.880;-0.518;2023-10-31T07:06:45;98950.06;;;17.63;47.43
39435;BME280;66825;51.880;-0.518;2023-10-31T07:09:10;98953.13;;;17.61;47.44
39435;BME280;66825;51.880;-0.518;2023-10-31T07:11:36;98950.72;;;17.60;47.47
39435;BME280;66825;51.880;-0.518;2023-10-31T07:14:02;98963.69;;;17.63;47.32
39435;BME280;66825;51.880;-0.518;2023-10-31T07:16:28;98952.53;;;17.56;47.30
39435;BME280;66825;51.880;-0.518;2023-10-31T07:18:53;98955.13;;;17.52;47.47
39435;BME280;66825;51.880;-0.518;2023-10-31T07:21:19;98974.09;;;17.61;47.37
39435;BME280;66825;51.880;-0.518;2023-10-31T07:23:44;98972.19;;;17.61;47.31
39435;BME280;66825;51.880;-0.518;2023-10-31T07:26:10;98973.31;;;17.60;47.23
39435;BME280;66825;51.880;-0.518;2023-10-31T07:28:36;98971.94;;;17.54;47.38
39435;BME280;66825;51.880;-0.518;2023-10-31T07:31:01;98978.81;;;17.52;47.35
39435;BME280;66825;51.880;-0.518;2023-10-31T07:33:27;98997.00;;;17.60;47.28
39435;BME280;66825;51.880;-0.518;2023-10-31T07:35:52;98991.78;;;17.55;47.32
39435;BME280;66825;51.880;-0.518;2023-10-31T07:38:17;98994.97;;;17.57;47.27
39435;BME280;66825;51.880;-0.518;2023-10-31T07:40:43;99002.47;;;17.60;47.47
39435;BME280;66825;51.880;-0.518;2023-10-31T07:43:08;99008.72;;;17.60;47.29
39435;BME280;66825;51.880;-0.518;2023-10-31T07:45:34;99007.91;;;17.60;47.32
39435;BME280;66825;51.880;-0.518;2023-10-31T07:48:01;99011.44;;;17.60;47.37
39435;BME280;66825;51.880;-0.518;2023-10-31T07:50:27;99014.03;;;17.57;47.55
39435;BME280;66825;51.880;-0.518;2023-10-31T07:52:52;99012.69;;;17.63;47.64
39435;BME280;66825;51.880;-0.518;2023-10-31T07:55:18;99015.19;;;17.68;47.67
39435;BME280;66825;51.880;-0.518;2023-10-31T07:57:44;99018.41;;;17.70;47.50
39435;BME280;66825;51.880;-0.518;2023-10-31T08:00:11;99013.84;;;17.74;47.41
39435;BME280;66825;51.880;-0.518;2023-10-31T08:02:37;99019.44;;;17.78;47.39
39435;BME280;66825;51.880;-0.518;2023-10-31T08:05:02;99014.09;;;17.82;47.29
39435;BME280;66825;51.880;-0.518;2023-10-31T08:07:28;99016.16;;;17.85;47.28
39435;BME280;66825;51.880;-0.518;2023-10-31T08:09:58;99024.47;;;17.88;47.50
39435;BME280;66825;51.880;-0.518;2023-10-31T08:12:24;99019.91;;;17.92;47.50
39435;BME280;66825;51.880;-0.518;2023-10-31T08:14:49;99027.47;;;17.96;47.21
39435;BME280;66825;51.880;-0.518;2023-10-31T08:17:15;99026.09;;;18.02;47.30
39435;BME280;66825;51.880;-0.518;2023-10-31T08:19:40;99019.00;;;18.09;47.13
39435;BME280;66825;51.880;-0.518;2023-10-31T08:22:06;99030.78;;;18.14;46.88
39435;BME280;66825;51.880;-0.518;2023-10-31T08:24:32;99023.97;;;18.20;46.96
39435;BME280;66825;51.880;-0.518;2023-10-31T08:26:59;99020.72;;;18.27;46.67
39435;BME280;66825;51.880;-0.518;2023-10-31T08:29:25;99018.53;;;18.32;46.72
39435;BME280;66825;51.880;-0.518;2023-10-31T08:31:50;99017.53;;;18.37;46.67
39435;BME280;66825;51.880;-0.518;2023-10-31T08:34:16;99020.03;;;18.42;46.41
39435;BME280;66825;51.880;-0.518;2023-10-31T08:36:41;99023.00;;;18.49;46.58
39435;BME280;66825;51.880;-0.518;2023-10-31T08:39:07;99027.09;;;18.55;46.48
39435;BME280;66825;51.880;-0.518;2023-10-31T08:41:32;99002.88;;;18.41;46.51
39435;BME280;66825;51.880;-0.518;2023-10-31T08:43:58;99032.88;;;18.66;46.39
39435;BME280;66825;51.880;-0.518;2023-10-31T08:46:25;99027.19;;;18.71;46.24
39435;BME280;66825;51.880;-0.518;2023-10-31T08:48:50;99030.03;;;18.75;46.28
39435;BME280;66825;51.880;-0.518;2023-10-31T08:51:15;99027.41;;;18.79;46.27
39435;BME280;66825;51.880;-0.518;2023-10-31T08:53:41;98994.00;;;18.57;46.29
39435;BME280;66825;51.880;-0.518;2023-10-31T08:56:07;99027.97;;;18.84;46.38
39435;BME280;66825;51.880;-0.518;2023-10-31T08:58:32;99020.34;;;18.78;46.40
39435;BME280;66825;51.880;-0.518;2023-10-31T09:00:58;99034.69;;;18.87;46.21
39435;BME280;66825;51.880;-0.518;2023-10-31T09:03:23;99029.91;;;18.84;46.02
39435;BME280;66825;51.880;-0.518;2023-10-31T09:05:49;99033.44;;;18.84;46.07
39435;BME280;66825;51.880;-0.518;2023-10-31T09:08:15;99038.44;;;18.82;46.14
39435;BME280;66825;51.880;-0.518;2023-10-31T09:10:40;99029.34;;;18.78;46.03
39435;BME280;66825;51.880;-0.518;2023-10-31T09:13:08;99033.56;;;18.76;46.21
39435;BME280;66825;51.880;-0.518;2023-10-31T09:15:33;99031.50;;;18.72;46.45
39435;BME280;66825;51.880;-0.518;2023-10-31T09:17:59;99038.81;;;18.68;46.50
39435;BME280;66825;51.880;-0.518;2023-10-31T09:20:24;99034.00;;;18.65;46.44
39435;BME280;66825;51.880;-0.518;2023-10-31T09:22:50;99037.41;;;18.62;46.83
39435;BME280;66825;51.880;-0.518;2023-10-31T09:25:15;99036.88;;;18.56;47.30
39435;BME280;66825;51.880;-0.518;2023-10-31T09:27:41;99041.50;;;18.56;47.19
39435;BME280;66825;51.880;-0.518;2023-10-31T09:30:07;99044.94;;;18.53;47.26
39435;BME280;66825;51.880;-0.518;2023-10-31T09:32:32;99042.63;;;18.55;47.58
39435;BME280;66825;51.880;-0.518;2023-10-31T09:34:58;99043.09;;;18.57;47.74
39435;BME280;66825;51.880;-0.518;2023-10-31T09:37:24;99042.75;;;18.58;47.32
39435;BME280;66825;51.880;-0.518;2023-10-31T09:39:49;99036.63;;;18.62;47.54
39435;BME280;66825;51.880;-0.518;2023-10-31T09:42:15;99023.13;;;18.53;47.77
39435;BME280;66825;51.880;-0.518;2023-10-31T09:44:40;99031.75;;;18.67;47.88
39435;BME280;66825;51.880;-0.518;2023-10-31T09:47:06;99029.44;;;18.69;47.79
39435;BME280;66825;51.880;-0.518;2023-10-31T09:49:32;99034.25;;;18.72;47.89
39435;BME280;66825;51.880;-0.518;2023-10-31T09:51:57;99035.94;;;18.77;47.50
39435;BME280;66825;51.880;-0.518;2023-10-31T09:54:25;99037.97;;;18.80;47.50
39435;BME280;66825;51.880;-0.518;2023-10-31T09:56:51;99040.81;;;18.84;47.35
39435;BME280;66825;51.880;-0.518;2023-10-31T09:59:17;99023.78;;;18.75;47.18
39435;BME280;66825;51.880;-0.518;2023-10-31T10:01:42;99035.81;;;18.86;47.13
39435;BME280;66825;51.880;-0.518;2023-10-31T10:04:08;99036.06;;;18.93;47.17
39435;BME280;66825;51.880;-0.518;2023-10-31T10:06:34;99041.16;;;18.95;47.20
39435;BME280;66825;51.880;-0.518;2023-10-31T10:09:00;99047.91;;;18.97;47.18
39435;BME280;66825;51.880;-0.518;2023-10-31T10:11:29;99047.19;;;19.00;47.13
39435;BME280;66825;51.880;-0.518;2023-10-31T10:13:57;99048.13;;;19.04;47.10
39435;BME280;66825;51.880;-0.518;2023-10-31T10:16:28;99068.78;;;19.05;47.05
39435;BME280;66825;51.880;-0.518;2023-10-31T10:18:54;99071.63;;;19.09;47.05
39435;BME280;66825;51.880;-0.518;2023-10-31T10:21:19;99076.75;;;19.11;46.95
39435;BME280;66825;51.880;-0.518;2023-10-31T10:23:46;99076.06;;;19.14;46.97
39435;BME280;66825;51.880;-0.518;2023-10-31T10:26:13;99072.19;;;19.15;46.88
39435;BME280;66825;51.880;-0.518;2023-10-31T10:28:38;99080.50;;;19.18;46.98
39435;BME280;66825;51.880;-0.518;2023-10-31T10:31:04;99080.94;;;19.20;47.02
39435;BME280;66825;51.880;-0.518;2023-10-31T10:33:33;99085.72;;;19.24;46.96
39435;BME280;66825;51.880;-0.518;2023-10-31T10:35:59;99080.50;;;19.18;46.95
39435;BME280;66825;51.880;-0.518;2023-10-31T10:38:25;99090.13;;;19.28;46.94
39435;BME280;66825;51.880;-0.518;2023-10-31T10:40:52;99085.94;;;19.31;47.06
39435;BME280;66825;51.880;-0.518;2023-10-31T10:43:23;99067.88;;;19.26;47.19
39435;BME280;66825;51.880;-0.518;2023-10-31T10:45:57;99075.91;;;19.35;47.28
39435;BME280;66825;51.880;-0.518;2023-10-31T10:48:24;99066.13;;;19.34;47.31
39435;BME280;66825;51.880;-0.518;2023-10-31T10:53:44;99075.88;;;19.47;47.55
39435;BME280;66825;51.880;-0.518;2023-10-31T10:56:21;99082.69;;;19.53;47.48
39435;BME280;66825;51.880;-0.518;2023-10-31T11:01:39;99079.38;;;19.60;47.31
39435;BME280;66825;51.880;-0.518;2023-10-31T11:04:06;99080.72;;;19.66;47.41
39435;BME280;66825;51.880;-0.518;2023-10-31T11:06:33;99088.31;;;19.73;47.33
39435;BME280;66825;51.880;-0.518;2023-10-31T11:09:00;99087.69;;;19.80;47.17
39435;BME280;66825;51.880;-0.518;2023-10-31T11:11:28;99004.56;;;19.36;47.04
39435;BME280;66825;51.880;-0.518;2023-10-31T11:13:55;99092.72;;;19.90;46.84
39435;BME280;66825;51.880;-0.518;2023-10-31T11:16:30;99094.31;;;19.91;46.66
39435;BME280;66825;51.880;-0.518;2023-10-31T11:18:57;99098.72;;;19.96;46.59
39435;BME280;66825;51.880;-0.518;2023-10-31T11:21:23;99081.69;;;19.87;46.57
39435;BME280;66825;51.880;-0.518;2023-10-31T11:23:58;99103.28;;;19.92;46.97
39435;BME280;66825;51.880;-0.518;2023-10-31T11:26:29;99092.03;;;19.93;46.44
39435;BME280;66825;51.880;-0.518;2023-10-31T11:29:07;99092.81;;;19.94;46.40
39435;BME280;66825;51.880;-0.518;2023-10-31T11:31:37;99083.72;;;19.90;46.41
39435;BME280;66825;51.880;-0.518;2023-10-31T11:34:03;99019.22;;;19.44;46.83
39435;BME280;66825;51.880;-0.518;2023-10-31T11:36:31;99095.63;;;19.97;46.82
39435;BME280;66825;51.880;-0.518;2023-10-31T11:39:14;99078.59;;;19.88;46.54
39435;BME280;66825;51.880;-0.518;2023-10-31T11:41:45;99100.16;;;20.06;46.42
39435;BME280;66825;51.880;-0.518;2023-10-31T11:44:15;99090.00;;;20.06;46.60
39435;BME280;66825;51.880;-0.518;2023-10-31T11:46:40;99045.94;;;19.79;46.70
39435;BME280;66825;51.880;-0.518;2023-10-31T11:49:06;99100.00;;;20.14;46.48
39435;BME280;66825;51.880;-0.518;2023-10-31T11:51:32;99091.78;;;20.14;46.26
39435;BME280;66825;51.880;-0.518;2023-10-31T11:54:00;99091.78;;;20.14;46.53
39435;BME280;66825;51.880;-0.518;2023-10-31T11:56:26;99088.69;;;20.16;46.83
39435;BME280;66825;51.880;-0.518;2023-10-31T11:59:01;99006.06;;;19.62;46.50
39435;BME280;66825;51.880;-0.518;2023-10-31T12:01:27;99089.59;;;20.20;46.78
39435;BME280;66825;51.880;-0.518;2023-10-31T12:03:53;99093.56;;;20.23;46.45
39435;BME280;66825;51.880;-0.518;2023-10-31T12:06:18;99022.38;;;19.75;46.49
39435;BME280;66825;51.880;-0.518;2023-10-31T12:08:46;99084.13;;;20.20;46.56
39435;BME280;66825;51.880;-0.518;2023-10-31T12:11:14;99066.31;;;20.10;46.45
39435;BME280;66825;51.880;-0.518;2023-10-31T12:13:59;99080.44;;;20.28;46.13
39435;BME280;66825;51.880;-0.518;2023-10-31T12:16:28;99087.84;;;20.28;46.31
39435;BME280;66825;51.880;-0.518;2023-10-31T12:18:55;99078.66;;;20.20;46.46
39435;BME280;66825;51.880;-0.518;2023-10-31T12:21:40;99075.94;;;20.20;46.37
39435;BME280;66825;51.880;-0.518;2023-10-31T12:24:11;99094.63;;;20.34;46.41
39435;BME280;66825;51.880;-0.518;2023-10-31T12:26:38;99093.50;;;20.35;46.51
39435;BME280;66825;51.880;-0.518;2023-10-31T12:31:39;99100.66;;;20.40;46.46
39435;BME280;66825;51.880;-0.518;2023-10-31T12:34:05;99115.56;;;20.42;46.34
39435;BME280;66825;51.880;-0.518;2023-10-31T12:36:31;99113.63;;;20.43;46.32
39435;BME280;66825;51.880;-0.518;2023-10-31T12:38:57;99112.47;;;20.44;46.32
39435;BME280;66825;51.880;-0.518;2023-10-31T12:41:23;99114.06;;;20.45;46.34
39435;BME280;66825;51.880;-0.518;2023-10-31T12:43:48;99111.31;;;20.45;46.18
39435;BME280;66825;51.880;-0.518;2023-10-31T12:46:30;99097.31;;;20.46;46.14
39435;BME280;66825;51.880;-0.518;2023-10-31T12:48:56;99096.16;;;20.47;46.19
39435;BME280;66825;51.880;-0.518;2023-10-31T12:51:22;99095.72;;;20.45;46.16
39435;BME280;66825;51.880;-0.518;2023-10-31T12:53:54;99098.91;;;20.47;46.18